createdAt,value
2022-09-28T00:02:10.517Z,98814.09
2022-09-28T00:04:38.126Z,98820.09
2022-09-28T00:07:05.602Z,98816.03
2022-09-28T00:09:34.571Z,98815.91
2022-09-28T00:12:02.516Z,98818.31
2022-09-28T00:14:31.457Z,98810.91
2022-09-28T00:16:58.963Z,98814.13
2022-09-28T00:19:26.578Z,98817.19
2022-09-28T00:21:54.072Z,98812.75
2022-09-28T00:24:26.610Z,98821.63
2022-09-28T00:26:58.795Z,98814.63
2022-09-28T00:29:27.791Z,98814.22
2022-09-28T00:31:59.857Z,98811.16
2022-09-28T00:34:27.930Z,98809.88
2022-09-28T00:36:55.581Z,98805.25
2022-09-28T00:39:23.308Z,98811.50
2022-09-28T00:41:51.071Z,98808.16
2022-09-28T00:44:41.936Z,98804.41
2022-09-28T00:47:32.123Z,98797.16
2022-09-28T00:50:03.017Z,98806.31
2022-09-28T00:52:34.842Z,98798.13
2022-09-28T00:55:05.460Z,98804.34
2022-09-28T00:57:33.326Z,98801.94
2022-09-28T01:00:03.191Z,98806.25
2022-09-28T01:02:30.764Z,98798.47
2022-09-28T01:04:59.087Z,98798.19
2022-09-28T01:07:26.776Z,98797.88
2022-09-28T01:09:54.980Z,98787.66
2022-09-28T01:12:22.520Z,98785.16
2022-09-28T01:14:50.347Z,98786.59
2022-09-28T01:17:24.395Z,98781.34
2022-09-28T01:20:05.386Z,98783.56
2022-09-28T01:22:48.447Z,98785.78
2022-09-28T01:25:25.997Z,98782.16
2022-09-28T01:27:56.019Z,98791.47
2022-09-28T01:30:23.728Z,98787.63
2022-09-28T01:32:54.574Z,98781.78
2022-09-28T01:35:25.255Z,98784.59
2022-09-28T01:37:54.216Z,98774.56
2022-09-28T01:40:24.005Z,98778.47
2022-09-28T01:42:55.959Z,98776.84
2022-09-28T01:45:25.345Z,98777.06
2022-09-28T01:47:55.355Z,98773.03
2022-09-28T01:50:24.692Z,98764.09
2022-09-28T01:52:55.697Z,98766.84
2022-09-28T01:55:29.868Z,98753.97
2022-09-28T01:58:03.261Z,98754.97
2022-09-28T02:00:30.911Z,98760.63
2022-09-28T02:03:07.631Z,98753.09
2022-09-28T02:05:37.207Z,98761.91
2022-09-28T02:08:07.873Z,98752.19
2022-09-28T02:10:40.556Z,98765.88
2022-09-28T02:13:13.486Z,98746.38
2022-09-28T02:15:44.242Z,98755.59
2022-09-28T02:18:11.811Z,98764.63
2022-09-28T02:20:40.896Z,98757.63
2022-09-28T02:23:08.927Z,98756.53
2022-09-28T02:25:40.788Z,98754.50
2022-09-28T02:28:11.154Z,98763.22
2022-09-28T02:30:40.899Z,98769.88
2022-09-28T02:33:12.768Z,98771.94
2022-09-28T02:35:40.714Z,98777.00
2022-09-28T02:38:08.221Z,98764.31
2022-09-28T02:40:37.753Z,98767.31
2022-09-28T02:43:13.060Z,98775.38
2022-09-28T02:45:49.246Z,98750.72
2022-09-28T02:48:42.689Z,98776.81
2022-09-28T02:51:19.920Z,98792.16
2022-09-28T02:54:04.371Z,98799.44
2022-09-28T02:56:42.567Z,98798.69
2022-09-28T02:59:19.115Z,98803.44
2022-09-28T03:01:52.881Z,98813.03
2022-09-28T03:04:29.239Z,98809.56
2022-09-28T03:07:01.320Z,98817.28
2022-09-28T03:09:33.718Z,98817.66
2022-09-28T03:12:05.961Z,98822.31
2022-09-28T03:14:34.936Z,98817.94
2022-09-28T03:17:02.438Z,98822.81
2022-09-28T03:19:32.553Z,98826.28
2022-09-28T03:22:00.130Z,98823.69
2022-09-28T03:24:27.659Z,98828.91
2022-09-28T03:26:55.423Z,98827.50
2022-09-28T03:29:22.912Z,98829.13
2022-09-28T03:31:51.805Z,98825.75
2022-09-28T03:34:19.667Z,98829.16
2022-09-28T03:36:47.144Z,98828.09
2022-09-28T03:39:14.731Z,98827.47
2022-09-28T03:41:42.602Z,98835.84
2022-09-28T03:44:10.078Z,98825.97
2022-09-28T03:46:37.583Z,98833.34
2022-09-28T03:49:06.422Z,98831.88
2022-09-28T03:51:33.927Z,98837.59
2022-09-28T03:54:01.684Z,98833.69
2022-09-28T03:56:29.189Z,98837.19
2022-09-28T03:58:56.678Z,98842.44
2022-09-28T04:01:24.205Z,98839.03
2022-09-28T04:03:55.024Z,98838.09
2022-09-28T04:06:23.967Z,98837.13
2022-09-28T04:08:51.514Z,98831.28
2022-09-28T04:11:19.053Z,98826.88
2022-09-28T04:13:49.395Z,98827.31
2022-09-28T04:16:17.891Z,98828.59
2022-09-28T04:18:45.494Z,98826.94
2022-09-28T04:21:14.024Z,98823.03
2022-09-28T04:23:43.246Z,98830.66
2022-09-28T04:26:16.495Z,98825.59
2022-09-28T04:29:06.190Z,98831.81
2022-09-28T04:31:39.117Z,98832.66
2022-09-28T04:34:06.674Z,98834.78
2022-09-28T04:36:34.246Z,98837.00
2022-09-28T04:39:03.151Z,98843.25
2022-09-28T04:41:30.668Z,98840.03
2022-09-28T04:43:58.162Z,98842.72
2022-09-28T04:46:26.046Z,98842.59
2022-09-28T04:48:53.542Z,98839.69
2022-09-28T04:51:21.052Z,98838.75
2022-09-28T04:53:48.547Z,98830.78
2022-09-28T04:56:18.560Z,98838.97
2022-09-28T04:58:51.786Z,98842.00
2022-09-28T05:01:20.966Z,98847.97
2022-09-28T05:03:48.527Z,98846.81
2022-09-28T05:06:16.567Z,98836.84
2022-09-28T05:08:46.665Z,98836.53
2022-09-28T05:11:15.103Z,98838.53
2022-09-28T05:13:45.662Z,98849.44
2022-09-28T05:16:15.681Z,98845.44
2022-09-28T05:18:43.626Z,98838.84
2022-09-28T05:21:12.678Z,98849.03
2022-09-28T05:23:40.223Z,98853.75
2022-09-28T05:26:08.040Z,98854.50
2022-09-28T05:28:35.569Z,98854.50
2022-09-28T05:31:05.372Z,98843.63
2022-09-28T05:33:33.729Z,98851.25
2022-09-28T05:36:02.050Z,98853.97
2022-09-28T05:38:30.128Z,98850.41
2022-09-28T05:40:57.902Z,98849.94
2022-09-28T05:43:25.744Z,98849.06
2022-09-28T05:45:55.810Z,98850.44
2022-09-28T05:48:25.022Z,98840.69
2022-09-28T05:50:52.999Z,98833.91
2022-09-28T05:53:20.694Z,98838.13
2022-09-28T05:55:48.196Z,98844.50
2022-09-28T05:58:15.754Z,98839.56
2022-09-28T06:00:43.724Z,98846.88
2022-09-28T06:03:12.531Z,98844.78
2022-09-28T06:05:41.661Z,98843.66
2022-09-28T06:08:11.505Z,98846.66
2022-09-28T06:10:39.255Z,98857.88
2022-09-28T06:13:07.415Z,98851.53
2022-09-28T06:15:36.087Z,98859.50
2022-09-28T06:18:05.278Z,98854.09
2022-09-28T06:20:34.898Z,98851.75
2022-09-28T06:23:04.231Z,98850.03
2022-09-28T06:25:31.733Z,98854.31
2022-09-28T06:28:00.602Z,98845.22
2022-09-28T06:30:29.617Z,98854.53
2022-09-28T06:32:58.124Z,98858.69
2022-09-28T06:35:27.155Z,98862.81
2022-09-28T06:37:55.020Z,98867.16
2022-09-28T06:40:24.771Z,98873.31
2022-09-28T06:42:56.975Z,98879.63
2022-09-28T06:45:25.271Z,98883.00
2022-09-28T06:47:57.339Z,98888.97
2022-09-28T06:50:25.878Z,98896.72
2022-09-28T06:52:53.775Z,98898.84
2022-09-28T06:55:21.673Z,98898.28
2022-09-28T06:57:58.926Z,98896.94
2022-09-28T07:00:26.766Z,98897.00
2022-09-28T07:02:54.321Z,98897.13
2022-09-28T07:05:27.072Z,98904.03
2022-09-28T07:07:56.167Z,98910.00
2022-09-28T07:10:24.265Z,98900.91
2022-09-28T07:12:53.271Z,98907.94
2022-09-28T07:15:21.276Z,98907.59
2022-09-28T07:18:00.537Z,98904.44
2022-09-28T07:20:30.479Z,98911.78
2022-09-28T07:23:10.422Z,98910.84
2022-09-28T07:25:45.292Z,98914.09
2022-09-28T07:28:14.660Z,98916.19
2022-09-28T07:30:44.186Z,98913.06
2022-09-28T07:33:14.300Z,98910.34
2022-09-28T07:35:42.900Z,98922.38
2022-09-28T07:38:11.492Z,98923.91
2022-09-28T07:40:56.916Z,98924.44
2022-09-28T07:43:25.896Z,98924.94
2022-09-28T07:45:55.596Z,98922.88
2022-09-28T07:48:23.747Z,98926.81
2022-09-28T07:50:52.171Z,98919.75
2022-09-28T07:53:20.153Z,98933.28
2022-09-28T07:55:51.928Z,98931.88
2022-09-28T07:58:20.269Z,98936.44
2022-09-28T08:00:49.683Z,98931.19
2022-09-28T08:03:17.703Z,98934.25
2022-09-28T08:05:46.784Z,98937.41
2022-09-28T08:08:14.804Z,98945.41
2022-09-28T08:10:46.993Z,98948.00
2022-09-28T08:13:16.318Z,98947.19
2022-09-28T08:15:43.831Z,98940.97
2022-09-28T08:18:12.788Z,98951.13
2022-09-28T08:20:57.747Z,98945.03
2022-09-28T08:23:26.016Z,98953.19
2022-09-28T08:25:53.871Z,98952.19
2022-09-28T08:28:22.507Z,98955.63
2022-09-28T08:30:50.609Z,98956.13
2022-09-28T08:33:21.269Z,98959.16
2022-09-28T08:35:49.673Z,98961.19
2022-09-28T08:38:17.587Z,98971.81
2022-09-28T08:40:51.393Z,98971.81
2022-09-28T08:43:33.921Z,98970.44
2022-09-28T08:46:01.805Z,98955.44
2022-09-28T08:48:52.408Z,98959.41
2022-09-28T08:51:31.995Z,98971.59
2022-09-28T08:54:04.854Z,98972.81
2022-09-28T08:56:40.271Z,98978.41
2022-09-28T08:59:12.814Z,98977.31
2022-09-28T09:01:45.999Z,98984.69
2022-09-28T09:04:15.221Z,98981.75
2022-09-28T09:06:55.205Z,98992.81
2022-09-28T09:09:29.326Z,98988.81
2022-09-28T09:12:06.241Z,98994.06
2022-09-28T09:15:15.511Z,98997.09
2022-09-28T09:17:49.776Z,98985.84
2022-09-28T09:20:21.263Z,99004.13
2022-09-28T09:22:57.678Z,99000.31
2022-09-28T09:25:28.250Z,99004.34
2022-09-28T09:28:26.202Z,99003.59
2022-09-28T09:31:01.430Z,99002.19
2022-09-28T09:33:43.694Z,99006.69
2022-09-28T09:36:21.855Z,99004.44
2022-09-28T09:38:57.999Z,99010.72
2022-09-28T09:41:35.288Z,99010.72
2022-09-28T09:44:31.372Z,99007.19
2022-09-28T09:47:01.958Z,99015.09
2022-09-28T09:49:35.064Z,99022.50
2022-09-28T09:52:07.323Z,99015.00
2022-09-28T09:54:38.731Z,99010.34
2022-09-28T09:57:11.417Z,99019.88
2022-09-28T09:59:41.321Z,99007.28
2022-09-28T10:02:16.976Z,99024.44
2022-09-28T10:04:46.858Z,99015.94
2022-09-28T10:07:22.260Z,99019.25
2022-09-28T10:09:50.679Z,99025.53
2022-09-28T10:12:21.047Z,99028.59
2022-09-28T10:14:49.479Z,99026.09
2022-09-28T10:17:20.090Z,99016.88
2022-09-28T10:19:47.670Z,99028.66
2022-09-28T10:22:19.065Z,99029.88
2022-09-28T10:24:48.747Z,99028.34
2022-09-28T10:27:18.636Z,99023.28
2022-09-28T10:29:51.936Z,99021.56
2022-09-28T10:32:22.274Z,99026.13
2022-09-28T10:34:51.045Z,99014.84
2022-09-28T10:37:20.420Z,99016.41
2022-09-28T10:39:52.171Z,99019.16
2022-09-28T10:42:22.355Z,99031.38
2022-09-28T10:44:52.788Z,99036.34
2022-09-28T10:47:21.256Z,99024.84
2022-09-28T10:49:50.782Z,99028.59
2022-09-28T10:52:37.626Z,99018.28
2022-09-28T10:55:26.094Z,99014.72
2022-09-28T10:57:53.900Z,99011.25
2022-09-28T11:00:32.249Z,99019.88
2022-09-28T11:03:00.275Z,99012.72
2022-09-28T11:05:28.619Z,99023.06
2022-09-28T11:07:58.490Z,99033.53
2022-09-28T11:10:28.427Z,99024.97
2022-09-28T11:12:56.756Z,99027.69
2022-09-28T11:15:28.236Z,99028.19
2022-09-28T11:17:55.751Z,99028.75
2022-09-28T11:20:35.497Z,99027.22
2022-09-28T11:23:20.387Z,99030.72
2022-09-28T11:25:58.520Z,99033.03
2022-09-28T11:28:32.651Z,99028.34
2022-09-28T11:31:01.380Z,99031.28
2022-09-28T11:33:32.916Z,99033.56
2022-09-28T11:36:11.802Z,99029.84
2022-09-28T11:38:47.414Z,99021.13
2022-09-28T11:41:25.794Z,99022.63
2022-09-28T11:44:03.930Z,99034.84
2022-09-28T11:46:35.164Z,99023.94
2022-09-28T11:49:08.191Z,99024.09
2022-09-28T11:51:37.437Z,99025.56
2022-09-28T11:54:14.194Z,99027.28
2022-09-28T11:56:44.250Z,99010.91
2022-09-28T11:59:14.376Z,99017.88
2022-09-28T12:01:45.272Z,99014.09
2022-09-28T12:04:16.395Z,99028.22
2022-09-28T12:06:48.280Z,99022.84
2022-09-28T12:09:22.443Z,99007.44
2022-09-28T12:11:52.595Z,99014.13
2022-09-28T12:14:22.526Z,99010.38
2022-09-28T12:17:05.304Z,99017.00
2022-09-28T12:19:36.783Z,99023.84
2022-09-28T12:22:06.663Z,99006.19
2022-09-28T12:24:40.023Z,99015.16
2022-09-28T12:27:12.939Z,99022.19
2022-09-28T12:29:42.810Z,99014.06
2022-09-28T12:32:15.306Z,99021.16
2022-09-28T12:34:43.185Z,99008.66
2022-09-28T12:37:33.016Z,99012.59
2022-09-28T12:40:20.775Z,99011.69
2022-09-28T12:43:05.225Z,99019.72
2022-09-28T12:46:06.686Z,99013.53
2022-09-28T12:48:56.666Z,99001.38
2022-09-28T12:51:44.886Z,99009.81
2022-09-28T12:54:25.202Z,99016.81
2022-09-28T12:57:00.302Z,99010.03
2022-09-28T12:59:32.264Z,99009.72
2022-09-28T13:02:22.278Z,99006.78
2022-09-28T13:05:01.325Z,99009.59
2022-09-28T13:07:33.267Z,99015.41
2022-09-28T13:10:14.606Z,99014.84
2022-09-28T13:12:53.728Z,99010.44
2022-09-28T13:15:32.041Z,99002.81
2022-09-28T13:18:07.074Z,99003.69
2022-09-28T13:20:49.207Z,99005.25
2022-09-28T13:23:20.559Z,99013.91
2022-09-28T13:25:52.019Z,99015.13
2022-09-28T13:28:26.269Z,99013.81
2022-09-28T13:30:56.472Z,99003.88
2022-09-28T13:33:30.279Z,99008.84
2022-09-28T13:35:57.809Z,98998.91
2022-09-28T13:38:51.856Z,99009.81
2022-09-28T13:41:29.596Z,99006.91
2022-09-28T13:44:27.287Z,99001.72
2022-09-28T13:47:19.982Z,99001.91
2022-09-28T13:49:57.428Z,98998.28
2022-09-28T13:52:33.587Z,99007.66
2022-09-28T13:55:15.481Z,99011.97
2022-09-28T13:57:47.530Z,99014.63
2022-09-28T14:00:22.030Z,99011.84
2022-09-28T14:02:55.262Z,99024.84
2022-09-28T14:05:46.083Z,99026.75
2022-09-28T14:08:34.926Z,99030.75
2022-09-28T14:11:25.780Z,99023.41
2022-09-28T14:14:00.464Z,99029.97
2022-09-28T14:16:32.062Z,99023.19
2022-09-28T14:19:02.816Z,99027.84
2022-09-28T14:21:55.588Z,99018.41
2022-09-28T14:24:30.483Z,99026.81
2022-09-28T14:27:11.135Z,99023.94
2022-09-28T14:29:39.986Z,99021.31
2022-09-28T14:32:24.682Z,99025.22
2022-09-28T14:34:59.605Z,99021.91
2022-09-28T14:37:46.764Z,99028.22
2022-09-28T14:40:36.475Z,99032.63
2022-09-28T14:43:26.173Z,99029.75
2022-09-28T14:46:29.241Z,99036.66
2022-09-28T14:49:01.630Z,99021.25
2022-09-28T14:51:45.130Z,99022.63
2022-09-28T14:54:18.492Z,99021.81
2022-09-28T14:56:49.551Z,99026.53
2022-09-28T14:59:19.663Z,99023.97
2022-09-28T15:01:50.623Z,99025.38
2022-09-28T15:04:20.117Z,99019.22
2022-09-28T15:06:49.844Z,99028.94
2022-09-28T15:09:28.045Z,99030.97
2022-09-28T15:12:00.694Z,99031.56
2022-09-28T15:14:31.615Z,99042.56
2022-09-28T15:17:03.323Z,99042.00
2022-09-28T15:19:34.599Z,99048.63
2022-09-28T15:22:02.095Z,99046.00
2022-09-28T15:24:34.325Z,99050.06
2022-09-28T15:27:02.365Z,99046.16
2022-09-28T15:29:33.220Z,99057.09
2022-09-28T15:32:00.890Z,99057.50
2022-09-28T15:34:56.383Z,99060.19
2022-09-28T15:37:26.208Z,99066.75
2022-09-28T15:39:54.977Z,99054.88
2022-09-28T15:42:22.844Z,99065.94
2022-09-28T15:45:07.715Z,99059.59
2022-09-28T15:47:36.123Z,99061.00
2022-09-28T15:50:06.163Z,99058.03
2022-09-28T15:52:38.606Z,99063.81
2022-09-28T15:55:18.358Z,99061.38
2022-09-28T15:57:45.904Z,99060.28
2022-09-28T16:00:26.224Z,99068.63
2022-09-28T16:03:05.693Z,99065.09
2022-09-28T16:05:37.739Z,99060.63
2022-09-28T16:08:12.656Z,99072.31
2022-09-28T16:10:53.648Z,99077.88
2022-09-28T16:13:23.824Z,99067.31
2022-09-28T16:15:57.902Z,99070.38
2022-09-28T16:18:26.673Z,99076.44
2022-09-28T16:20:55.520Z,99074.50
2022-09-28T16:23:27.067Z,99080.66
2022-09-28T16:25:58.669Z,99077.88
2022-09-28T16:28:51.589Z,99080.06
2022-09-28T16:31:33.115Z,99074.34
2022-09-28T16:34:02.216Z,99071.78
2022-09-28T16:36:45.695Z,99070.66
2022-09-28T16:39:16.242Z,99073.38
2022-09-28T16:41:46.426Z,99069.81
2022-09-28T16:44:20.553Z,99068.84
2022-09-28T16:46:48.183Z,99080.47
2022-09-28T16:49:20.533Z,99078.72
2022-09-28T16:51:48.596Z,99090.84
2022-09-28T16:54:37.270Z,99083.19
2022-09-28T16:57:06.759Z,99091.41
2022-09-28T16:59:34.628Z,99100.34
2022-09-28T17:02:02.116Z,99106.13
2022-09-28T17:04:29.680Z,99113.91
2022-09-28T17:06:58.261Z,99117.06
2022-09-28T17:09:27.146Z,99112.63
2022-09-28T17:11:56.040Z,99120.69
2022-09-28T17:14:24.399Z,99123.69
2022-09-28T17:17:11.579Z,99121.63
2022-09-28T17:19:41.398Z,99120.94
2022-09-28T17:22:09.163Z,99117.00
2022-09-28T17:24:38.113Z,99128.03
2022-09-28T17:27:06.861Z,99123.66
2022-09-28T17:29:34.399Z,99128.47
2022-09-28T17:32:02.148Z,99126.09
2022-09-28T17:34:29.659Z,99129.38
2022-09-28T17:36:57.154Z,99122.41
2022-09-28T17:39:25.355Z,99133.31
2022-09-28T17:41:54.203Z,99130.16
2022-09-28T17:44:21.955Z,99136.63
2022-09-28T17:46:51.137Z,99132.53
2022-09-28T17:49:19.118Z,99136.06
2022-09-28T17:51:46.913Z,99139.06
2022-09-28T17:54:16.842Z,99142.16
2022-09-28T17:56:44.392Z,99146.94
2022-09-28T17:59:15.248Z,99149.53
2022-09-28T18:01:42.799Z,99147.00
2022-09-28T18:04:33.198Z,99146.53
2022-09-28T18:07:00.953Z,99143.78
2022-09-28T18:09:28.476Z,99144.88
2022-09-28T18:12:01.277Z,99147.19
2022-09-28T18:14:30.162Z,99146.50
2022-09-28T18:16:57.684Z,99151.06
2022-09-28T18:19:28.624Z,99151.06
2022-09-28T18:21:59.374Z,99155.31
2022-09-28T18:24:27.003Z,99153.66
2022-09-28T18:26:54.497Z,99158.47
2022-09-28T18:29:22.042Z,99157.00
2022-09-28T18:31:50.906Z,99157.94
2022-09-28T18:34:18.531Z,99156.72
2022-09-28T18:36:46.312Z,99161.25
2022-09-28T18:39:13.804Z,99158.97
2022-09-28T18:41:42.680Z,99157.41
2022-09-28T18:44:10.794Z,99166.25
2022-09-28T18:46:38.481Z,99162.91
2022-09-28T18:49:07.486Z,99162.28
2022-09-28T18:51:35.011Z,99179.38
2022-09-28T18:54:07.036Z,99171.66
2022-09-28T18:56:37.150Z,99174.63
2022-09-28T18:59:06.794Z,99175.41
2022-09-28T19:01:37.872Z,99175.91
2022-09-28T19:04:09.584Z,99179.94
2022-09-28T19:06:40.599Z,99182.28
2022-09-28T19:09:08.897Z,99175.69
2022-09-28T19:11:36.455Z,99174.13
2022-09-28T19:14:04.300Z,99176.47
2022-09-28T19:16:33.593Z,99178.88
2022-09-28T19:19:02.682Z,99179.78
2022-09-28T19:21:32.462Z,99177.38
2022-09-28T19:24:01.651Z,99179.16
2022-09-28T19:26:29.968Z,99188.94
2022-09-28T19:28:58.379Z,99187.69
2022-09-28T19:31:26.661Z,99188.53
2022-09-28T19:33:54.157Z,99185.06
2022-09-28T19:36:23.939Z,99181.31
2022-09-28T19:38:53.356Z,99185.19
2022-09-28T19:41:39.304Z,99185.63
2022-09-28T19:44:13.019Z,99190.03
2022-09-28T19:46:41.072Z,99190.31
2022-09-28T19:49:10.404Z,99194.00
2022-09-28T19:51:46.906Z,99192.97
2022-09-28T19:54:33.117Z,99199.16
2022-09-28T19:57:07.737Z,99198.22
2022-09-28T19:59:36.413Z,99200.75
2022-09-28T20:02:04.154Z,99200.75
2022-09-28T20:04:31.723Z,99204.31
2022-09-28T20:06:59.226Z,99204.72
2022-09-28T20:09:28.087Z,99206.94
2022-09-28T20:11:55.596Z,99214.41
2022-09-28T20:14:25.786Z,99212.28
2022-09-28T20:16:55.772Z,99215.34
2022-09-28T20:19:23.367Z,99216.19
2022-09-28T20:21:51.314Z,99211.44
2022-09-28T20:24:19.087Z,99210.59
2022-09-28T20:26:49.441Z,99217.34
2022-09-28T20:29:17.430Z,99217.03
2022-09-28T20:31:45.576Z,99219.75
2022-09-28T20:34:13.168Z,99229.97
2022-09-28T20:36:42.306Z,99227.66
2022-09-28T20:39:11.177Z,99231.22
2022-09-28T20:41:38.771Z,99233.53
2022-09-28T20:44:07.763Z,99242.78
2022-09-28T20:46:35.817Z,99237.53
2022-09-28T20:49:04.129Z,99239.63
2022-09-28T20:51:31.894Z,99244.88
2022-09-28T20:54:00.095Z,99236.06
2022-09-28T20:56:28.478Z,99244.78
2022-09-28T20:58:56.826Z,99237.13
2022-09-28T21:01:27.281Z,99237.72
2022-09-28T21:03:56.183Z,99243.53
2022-09-28T21:06:25.547Z,99243.91
2022-09-28T21:08:53.361Z,99249.25
2022-09-28T21:11:22.216Z,99241.50
2022-09-28T21:13:53.043Z,99246.47
2022-09-28T21:16:20.876Z,99258.22
2022-09-28T21:18:49.758Z,99256.66
2022-09-28T21:21:18.623Z,99263.88
2022-09-28T21:23:46.419Z,99256.63
2022-09-28T21:26:18.765Z,99266.81
2022-09-28T21:28:46.543Z,99263.97
2022-09-28T21:31:15.345Z,99263.88
2022-09-28T21:33:42.917Z,99268.69
2022-09-28T21:36:12.226Z,99269.53
2022-09-28T21:38:39.743Z,99274.66
2022-09-28T21:41:07.303Z,99275.41
2022-09-28T21:43:34.796Z,99273.00
2022-09-28T21:46:02.749Z,99276.00
2022-09-28T21:48:30.946Z,99273.28
2022-09-28T21:50:59.711Z,99279.69
2022-09-28T21:53:30.056Z,99281.97
2022-09-28T21:55:58.382Z,99280.38
2022-09-28T21:58:28.246Z,99278.25
2022-09-28T22:01:02.201Z,99281.63
2022-09-28T22:03:30.318Z,99285.56
2022-09-28T22:05:57.901Z,99286.22
2022-09-28T22:08:25.907Z,99285.72
2022-09-28T22:11:01.487Z,99295.13
2022-09-28T22:13:29.145Z,99301.47
2022-09-28T22:15:57.682Z,99301.56
2022-09-28T22:18:25.453Z,99298.09
2022-09-28T22:20:59.502Z,99297.34
2022-09-28T22:23:27.169Z,99307.19
2022-09-28T22:26:01.058Z,99302.88
2022-09-28T22:28:29.888Z,99306.94
2022-09-28T22:30:58.019Z,99307.88
2022-09-28T22:33:25.848Z,99312.19
2022-09-28T22:35:53.781Z,99315.72
2022-09-28T22:38:21.858Z,99315.72
2022-09-28T22:40:49.817Z,99316.22
2022-09-28T22:43:18.754Z,99313.69
2022-09-28T22:45:46.518Z,99324.06
2022-09-28T22:48:14.260Z,99325.31
2022-09-28T22:50:49.091Z,99313.13
2022-09-28T22:53:16.583Z,99321.00
2022-09-28T22:55:44.098Z,99322.22
2022-09-28T22:58:11.644Z,99323.06
2022-09-28T23:00:40.566Z,99329.88
2022-09-28T23:03:08.200Z,99326.63
2022-09-28T23:05:35.786Z,99332.03
2022-09-28T23:08:03.311Z,99327.28
2022-09-28T23:10:30.825Z,99327.66
2022-09-28T23:12:58.346Z,99328.31
2022-09-28T23:15:26.122Z,99321.84
2022-09-28T23:17:55.079Z,99324.84
2022-09-28T23:20:23.564Z,99317.00
2022-09-28T23:22:51.377Z,99322.59
2022-09-28T23:25:19.520Z,99320.09
2022-09-28T23:27:47.563Z,99320.44
2022-09-28T23:30:15.538Z,99323.03
2022-09-28T23:32:43.162Z,99328.09
2022-09-28T23:35:12.831Z,99328.09
2022-09-28T23:37:40.326Z,99321.16
2022-09-28T23:40:08.512Z,99334.63
2022-09-28T23:42:36.024Z,99331.38
2022-09-28T23:45:03.547Z,99335.03
2022-09-28T23:47:31.080Z,99323.03
2022-09-28T23:49:58.693Z,99321.91
2022-09-28T23:52:27.556Z,99328.00
2022-09-28T23:54:55.078Z,99332.84
2022-09-28T23:57:22.560Z,99337.72
2022-09-28T23:59:50.095Z,99322.66
